Time;durP1;ratioP1;P1;durP2;ratioP2;P2;SDS_P1;SDS_P2;PMS_P1;PMS_P2;Temp;Humidity;BMP_temperature;BMP_pressure;BME280_temperature;BME280_humidity;BME280_pressure;Samples;Min_cycle;Max_cycle;Signal;HPM_P1;HPM_P2
2024/01/23 00:01:06;;;;;;;;;;;;;;;;;;4996737;28;20281;-82
2024/01/23 00:03:33;;;;;;;;;;;;;;;;;;4996706;28;19910;-81
2024/01/23 00:05:58;;;;;;;;;;;;;;;;;;4996751;28;19913;-81
2024/01/23 00:08:23;;;;;;;;;;;;;;;;;;4996976;28;19996;-81
2024/01/23 00:10:49;;;;;;;;;;;;;;;;;;4999256;28;19913;-81
2024/01/23 00:13:15;;;;;;;;;;;;;;;;;;4997762;28;20029;-82
2024/01/23 00:15:40;;;;;;;;;;;;;;;;;;5000023;28;19914;-81
2024/01/23 00:18:07;;;;;;;;;;;;;;;;;;4996242;28;19981;-81
2024/01/23 00:20:33;;;;;;;;;;;;;;;;;;4994701;28;19917;-81
2024/01/23 00:22:58;;;;;;;;;;;;;;;;;;4994746;28;20272;-81
2024/01/23 00:25:23;;;;;;;;;;;;;;;;;;4993449;28;19964;-81
2024/01/23 00:27:49;;;;;;;;;;;;;;;;;;4993133;28;20475;-81
2024/01/23 00:30:14;;;;;;;;;;;;;;;;;;4996346;28;19913;-81
2024/01/23 00:32:39;;;;;;;;;;;;;;;;;;4997147;28;19910;-82
2024/01/23 00:35:05;;;;;;;;;;;;;;;;;;4998701;28;19917;-81
2024/01/23 00:37:31;;;;;;;;;;;;;;;;;;4992950;28;19977;-82
2024/01/23 00:39:59;;;;;;;;;;;;;;;;;;4994902;28;20392;-81
2024/01/23 00:42:24;;;;;;;;;;;;;;;;;;4994025;28;19964;-82
2024/01/23 00:44:50;;;;;;;;;;;;;;;;;;4993729;28;19914;-82
2024/01/23 00:47:15;;;;;;;;;;;;;;;;;;4993734;28;19909;-83
2024/01/23 00:49:40;;;;;;;;;;;;;;;;;;4993846;28;20350;-83
2024/01/23 00:52:06;;;;;;;;;;;;;;;;;;4993047;28;19910;-82
2024/01/23 00:54:31;;;;;;;;;;;;;;;;;;5000405;28;19980;-82
2024/01/23 00:56:56;;;;;;;;;;;;;;;;;;5004353;28;19917;-82
2024/01/23 00:59:22;;;;;;;;;;;;;;;;;;4998233;28;19949;-81
2024/01/23 01:01:47;;;;;;;;;;;;;;;;;;5004458;28;19916;-81
2024/01/23 01:04:13;;;;;;;;;;;;;;;;;;4997631;28;19918;-82
2024/01/23 01:06:38;;;;;;;;;;;;;;;;;;5001348;28;20331;-82
2024/01/23 01:09:03;;;;;;;;;;;;;;;;;;5006303;28;19929;-81
2024/01/23 01:11:29;;;;;;;;;;;;;;;;;;5010675;28;19948;-80
2024/01/23 01:13:55;;;;;;;;;;;;;;;;;;5006309;28;20296;-81
2024/01/23 01:16:20;;;;;;;;;;;;;;;;;;4997114;28;20007;-82
2024/01/23 01:18:46;;;;;;;;;;;;;;;;;;5004545;28;19913;-83
2024/01/23 01:21:11;;;;;;;;;;;;;;;;;;4981933;28;19910;-83
2024/01/23 01:23:36;;;;;;;;;;;;;;;;;;4988852;28;20411;-81
2024/01/23 01:26:02;;;;;;;;;;;;;;;;;;4992967;28;19909;-81
2024/01/23 01:28:27;;;;;;;;;;;;;;;;;;4993085;28;19914;-81
2024/01/23 01:30:52;;;;;;;;;;;;;;;;;;5003252;28;19913;-80
2024/01/23 01:33:18;;;;;;;;;;;;;;;;;;5001644;28;19913;-82
2024/01/23 01:35:43;;;;;;;;;;;;;;;;;;4997281;28;19992;-82
2024/01/23 01:38:08;;;;;;;;;;;;;;;;;;4997279;28;19926;-82
2024/01/23 01:40:34;;;;;;;;;;;;;;;;;;4997759;28;19916;-81
2024/01/23 01:43:00;;;;;;;;;;;;;;;;;;4997151;28;19913;-83
2024/01/23 01:45:25;;;;;;;;;;;;;;;;;;4997841;28;19932;-82
2024/01/23 01:47:50;;;;;;;;;;;;;;;;;;4999474;28;19949;-82
2024/01/23 01:50:16;;;;;;;;;;;;;;;;;;4995404;28;19910;-81
2024/01/23 01:52:41;;;;;;;;;;;;;;;;;;5000107;28;19917;-82
2024/01/23 01:55:07;;;;;;;;;;;;;;;;;;4996566;28;19914;-81
2024/01/23 01:57:33;;;;;;;;;;;;;;;;;;4998106;28;20393;-81
2024/01/23 01:59:59;;;;;;;;;;;;;;;;;;4997258;28;19909;-81
2024/01/23 02:02:24;;;;;;;;;;;;;;;;;;4998353;28;20399;-82
2024/01/23 02:04:49;;;;;;;;;;;;;;;;;;4995420;28;19910;-81
2024/01/23 02:07:15;;;;;;;;;;;;;;;;;;4997470;28;19913;-81
2024/01/23 02:09:40;;;;;;;;;;;;;;;;;;4996364;28;19933;-81
2024/01/23 02:12:07;;;;;;;;;;;;;;;;;;4996536;28;19918;-81
2024/01/23 02:14:33;;;;;;;;;;;;;;;;;;4994693;28;19918;-81
2024/01/23 02:16:58;;;;;;;;;;;;;;;;;;5003010;28;20487;-81
2024/01/23 02:19:23;;;;;;;;;;;;;;;;;;5002009;28;20003;-81
2024/01/23 02:21:49;;;;;;;;;;;;;;;;;;5003523;28;19964;-81
2024/01/23 02:24:14;;;;;;;;;;;;;;;;;;4997913;28;19914;-81
2024/01/23 02:26:39;;;;;;;;;;;;;;;;;;4996399;28;19913;-80
2024/01/23 02:29:04;;;;;;;;;;;;;;;;;;4982506;28;19947;-81
2024/01/23 02:31:30;;;;;;;;;;;;;;;;;;5001250;28;20005;-81
2024/01/23 02:33:55;;;;;;;;;;;;;;;;;;4996186;28;19913;-82
2024/01/23 02:36:20;;;;;;;;;;;;;;;;;;4996894;28;19928;-82
2024/01/23 02:38:46;;;;;;;;;;;;;;;;;;4995419;28;19972;-81
2024/01/23 02:41:11;;;;;;;;;;;;;;;;;;4994705;28;19914;-81
2024/01/23 02:43:36;;;;;;;;;;;;;;;;;;5000629;28;19968;-81
2024/01/23 02:46:02;;;;;;;;;;;;;;;;;;4999223;28;19913;-81
2024/01/23 02:48:27;;;;;;;;;;;;;;;;;;5000442;28;19959;-80
2024/01/23 02:50:52;;;;;;;;;;;;;;;;;;5005111;28;19918;-81
2024/01/23 02:53:18;;;;;;;;;;;;;;;;;;5014166;28;20430;-81
2024/01/23 02:55:44;;;;;;;;;;;;;;;;;;5005328;28;19920;-80
2024/01/23 02:58:10;;;;;;;;;;;;;;;;;;4994341;28;19998;-81
2024/01/23 03:00:37;;;;;;;;;;;;;;;;;;4995367;28;19925;-81
2024/01/23 03:03:03;;;;;;;;;;;;;;;;;;4995470;28;19910;-81
2024/01/23 03:05:28;;;;;;;;;;;;;;;;;;4994371;28;19913;-81
2024/01/23 03:07:53;;;;;;;;;;;;;;;;;;4995163;28;19910;-82
2024/01/23 03:10:19;;;;;;;;;;;;;;;;;;4995203;28;19918;-81
2024/01/23 03:12:46;;;;;;;;;;;;;;;;;;4995656;28;20008;-81
2024/01/23 03:15:11;;;;;;;;;;;;;;;;;;4994529;28;19918;-80
2024/01/23 03:17:37;;;;;;;;;;;;;;;;;;4995088;28;19921;-82
2024/01/23 03:20:02;;;;;;;;;;;;;;;;;;4995360;28;19914;-80
2024/01/23 03:22:28;;;;;;;;;;;;;;;;;;4995049;28;19960;-80
2024/01/23 03:24:53;;;;;;;;;;;;;;;;;;5000658;28;19914;-81
2024/01/23 03:27:18;;;;;;;;;;;;;;;;;;4998482;28;19917;-82
2024/01/23 03:29:44;;;;;;;;;;;;;;;;;;5003419;28;20473;-80
2024/01/23 03:32:09;;;;;;;;;;;;;;;;;;4989619;28;19910;-81
2024/01/23 03:34:34;;;;;;;;;;;;;;;;;;5003454;28;20008;-81
2024/01/23 03:37:01;;;;;;;;;;;;;;;;;;4998948;28;20080;-81
2024/01/23 03:39:26;;;;;;;;;;;;;;;;;;5001839;28;19921;-80
2024/01/23 03:41:51;;;;;;;;;;;;;;;;;;5000673;28;20285;-80
2024/01/23 03:44:17;;;;;;;;;;;;;;;;;;4981335;28;19913;-81
2024/01/23 03:46:42;;;;;;;;;;;;;;;;;;4998723;28;19933;-81
2024/01/23 03:49:07;;;;;;;;;;;;;;;;;;5001749;28;19919;-81
2024/01/23 03:51:33;;;;;;;;;;;;;;;;;;4999336;28;19919;-80
2024/01/23 03:53:58;;;;;;;;;;;;;;;;;;5002231;28;19952;-80
2024/01/23 03:56:23;;;;;;;;;;;;;;;;;;4995927;28;19932;-82
2024/01/23 03:58:49;;;;;;;;;;;;;;;;;;4999508;28;19914;-81
2024/01/23 04:01:14;;;;;;;;;;;;;;;;;;4994110;28;19916;-80
2024/01/23 04:03:39;;;;;;;;;;;;;;;;;;4995123;28;19914;-81
2024/01/23 04:06:05;;;;;;;;;;;;;;;;;;4996403;28;19913;-81
2024/01/23 04:08:30;;;;;;;;;;;;;;;;;;4993653;28;19956;-82
2024/01/23 04:10:57;;;;;;;;;;;;;;;;;;4998001;28;19916;-82
2024/01/23 04:13:22;;;;;;;;;;;;;;;;;;4996719;28;19920;-80
2024/01/23 04:15:48;;;;;;;;;;;;;;;;;;4994328;28;19910;-81
2024/01/23 04:18:13;;;;;;;;;;;;;;;;;;5003581;28;19913;-81
2024/01/23 04:20:40;;;;;;;;;;;;;;;;;;4994498;28;19909;-82
2024/01/23 04:23:05;;;;;;;;;;;;;;;;;;4985540;28;19921;-81
2024/01/23 04:25:30;;;;;;;;;;;;;;;;;;4993795;28;20292;-81
2024/01/23 04:27:57;;;;;;;;;;;;;;;;;;4994824;28;19914;-81
2024/01/23 04:30:22;;;;;;;;;;;;;;;;;;4994870;28;19918;-81
2024/01/23 04:32:47;;;;;;;;;;;;;;;;;;5007064;28;19913;-81
2024/01/23 04:35:13;;;;;;;;;;;;;;;;;;5000658;28;19920;-81
2024/01/23 04:37:38;;;;;;;;;;;;;;;;;;4997559;28;20404;-81
2024/01/23 04:40:07;;;;;;;;;;;;;;;;;;4997291;28;19916;-81
2024/01/23 04:42:32;;;;;;;;;;;;;;;;;;4998185;28;19913;-80
2024/01/23 04:44:58;;;;;;;;;;;;;;;;;;4996350;28;19910;-84
2024/01/23 04:47:23;;;;;;;;;;;;;;;;;;4995831;28;20336;-80
2024/01/23 04:49:48;;;;;;;;;;;;;;;;;;5000762;28;20311;-81
2024/01/23 04:52:14;;;;;;;;;;;;;;;;;;4999897;28;19914;-83
2024/01/23 04:54:41;;;;;;;;;;;;;;;;;;4975705;28;20416;-81
2024/01/23 04:57:06;;;;;;;;;;;;;;;;;;4987486;28;20385;-81
2024/01/23 04:59:32;;;;;;;;;;;;;;;;;;4994852;28;19910;-82
2024/01/23 05:01:57;;;;;;;;;;;;;;;;;;4992359;28;19914;-82
2024/01/23 05:04:22;;;;;;;;;;;;;;;;;;4991291;28;19921;-82
2024/01/23 05:06:48;;;;;;;;;;;;;;;;;;4986369;28;20361;-82
2024/01/23 05:09:13;;;;;;;;;;;;;;;;;;5004592;28;19999;-82
2024/01/23 05:11:38;;;;;;;;;;;;;;;;;;4996774;28;20377;-82
2024/01/23 05:14:04;;;;;;;;;;;;;;;;;;5003625;28;19913;-81
2024/01/23 05:16:29;;;;;;;;;;;;;;;;;;4998996;28;19913;-81
2024/01/23 05:18:54;;;;;;;;;;;;;;;;;;5005032;28;19909;-80
2024/01/23 05:21:20;;;;;;;;;;;;;;;;;;4996299;28;19976;-82
2024/01/23 05:23:45;;;;;;;;;;;;;;;;;;4992628;28;20000;-84
2024/01/23 05:26:10;;;;;;;;;;;;;;;;;;4993962;28;19920;-81
2024/01/23 05:28:36;;;;;;;;;;;;;;;;;;4977281;28;19925;-84
2024/01/23 05:31:02;;;;;;;;;;;;;;;;;;4994301;28;19913;-82
2024/01/23 05:33:27;;;;;;;;;;;;;;;;;;4994587;28;20058;-82
2024/01/23 05:35:52;;;;;;;;;;;;;;;;;;5008693;28;19956;-83
2024/01/23 05:38:18;;;;;;;;;;;;;;;;;;4990351;28;19926;-83
2024/01/23 05:40:43;;;;;;;;;;;;;;;;;;4990874;28;19960;-82
2024/01/23 05:43:09;;;;;;;;;;;;;;;;;;4989956;28;19960;-83
2024/01/23 05:45:34;;;;;;;;;;;;;;;;;;4991486;28;20281;-83
2024/01/23 05:47:59;;;;;;;;;;;;;;;;;;4992079;28;19972;-83
2024/01/23 05:50:25;;;;;;;;;;;;;;;;;;4990304;28;20176;-83
2024/01/23 05:52:50;;;;;;;;;;;;;;;;;;4992528;28;19910;-83
2024/01/23 05:55:16;;;;;;;;;;;;;;;;;;4990367;28;19924;-82
2024/01/23 05:57:41;;;;;;;;;;;;;;;;;;4974150;28;19916;-83
2024/01/23 06:00:09;;;;;;;;;;;;;;;;;;4990659;28;19913;-83
2024/01/23 06:02:34;;;;;;;;;;;;;;;;;;4991200;28;20420;-83
2024/01/23 06:05:00;;;;;;;;;;;;;;;;;;4991698;28;19921;-84
2024/01/23 06:07:25;;;;;;;;;;;;;;;;;;4992144;28;19910;-82
2024/01/23 06:09:51;;;;;;;;;;;;;;;;;;4990012;28;19913;-82
2024/01/23 06:12:16;;;;;;;;;;;;;;;;;;4992301;28;19910;-82
2024/01/23 06:14:41;;;;;;;;;;;;;;;;;;4989077;28;20007;-82
2024/01/23 06:17:07;;;;;;;;;;;;;;;;;;4993155;28;19910;-83
2024/01/23 06:19:33;;;;;;;;;;;;;;;;;;4994224;28;19964;-83
2024/01/23 06:21:58;;;;;;;;;;;;;;;;;;4994501;28;19913;-82
2024/01/23 06:24:23;;;;;;;;;;;;;;;;;;4992225;28;19921;-84
2024/01/23 06:26:49;;;;;;;;;;;;;;;;;;4992437;28;19920;-83
2024/01/23 06:29:14;;;;;;;;;;;;;;;;;;4991887;28;19924;-82
2024/01/23 06:31:41;;;;;;;;;;;;;;;;;;5005870;28;19964;-83
2024/01/23 06:34:06;;;;;;;;;;;;;;;;;;5001208;28;19917;-83
2024/01/23 06:36:32;;;;;;;;;;;;;;;;;;4997658;28;20172;-83
2024/01/23 06:38:57;;;;;;;;;;;;;;;;;;4992161;28;19926;-84
2024/01/23 06:41:23;;;;;;;;;;;;;;;;;;4994422;28;19913;-84
2024/01/23 06:43:49;;;;;;;;;;;;;;;;;;4991746;28;20351;-82
2024/01/23 06:46:14;;;;;;;;;;;;;;;;;;4975072;28;19913;-83
2024/01/23 06:48:39;;;;;;;;;;;;;;;;;;4991614;28;19913;-83
2024/01/23 06:51:05;;;;;;;;;;;;;;;;;;4991483;28;20015;-82
2024/01/23 06:53:30;;;;;;;;;;;;;;;;;;4973783;28;20270;-84
2024/01/23 06:55:55;;;;;;;;;;;;;;;;;;4992085;28;20380;-83
2024/01/23 06:58:21;;;;;;;;;;;;;;;;;;4992947;28;20060;-82
2024/01/23 07:00:46;;;;;;;;;;;;;;;;;;4993644;28;20407;-83
2024/01/23 07:03:11;;;;;;;;;;;;;;;;;;4993514;28;19913;-84
2024/01/23 07:05:36;;;;;;;;;;;;;;;;;;4992257;28;20452;-83
2024/01/23 07:08:02;;;;;;;;;;;;;;;;;;4992530;28;19924;-83
2024/01/23 07:10:28;;;;;;;;;;;;;;;;;;4976184;28;20344;-84
2024/01/23 07:12:53;;;;;;;;;;;;;;;;;;4992457;28;19952;-83
2024/01/23 07:15:18;;;;;;;;;;;;;;;;;;4993441;28;19914;-85
2024/01/23 07:17:44;;;;;;;;;;;;;;;;;;4991928;28;19914;-83
2024/01/23 07:20:10;;;;;;;;;;;;;;;;;;4993564;28;19960;-82
2024/01/23 07:22:36;;;;;;;;;;;;;;;;;;4980981;28;19936;-82
2024/01/23 07:25:01;;;;;;;;;;;;;;;;;;4975173;28;20365;-83
2024/01/23 07:27:27;;;;;;;;;;;;;;;;;;5006955;28;20393;-83
2024/01/23 07:29:52;;;;;;;;;;;;;;;;;;4992519;28;19920;-82
2024/01/23 07:32:17;;;;;;;;;;;;;;;;;;4993663;28;19913;-83
2024/01/23 07:34:42;;;;;;;;;;;;;;;;;;5008305;28;20330;-83
2024/01/23 07:37:08;;;;;;;;;;;;;;;;;;5003701;28;19917;-83
2024/01/23 07:39:33;;;;;;;;;;;;;;;;;;4992699;28;20293;-83
2024/01/23 07:41:59;;;;;;;;;;;;;;;;;;4992763;28;19914;-84
2024/01/23 07:44:24;;;;;;;;;;;;;;;;;;4976052;28;19910;-83
2024/01/23 07:46:49;;;;;;;;;;;;;;;;;;4992705;28;20091;-83
2024/01/23 07:49:15;;;;;;;;;;;;;;;;;;4992640;28;19909;-83
2024/01/23 07:51:40;;;;;;;;;;;;;;;;;;4995715;28;20008;-83
2024/01/23 07:54:05;;;;;;;;;;;;;;;;;;4992739;28;20427;-84
2024/01/23 07:56:31;;;;;;;;;;;;;;;;;;4995377;28;19957;-83
2024/01/23 07:58:56;;;;;;;;;;;;;;;;;;4976079;28;19919;-83
2024/01/23 08:01:21;;;;;;;;;;;;;;;;;;4997099;28;19925;-84
2024/01/23 08:03:47;;;;;;;;;;;;;;;;;;4991814;28;19909;-83
2024/01/23 08:06:12;;;;;;;;;;;;;;;;;;4990040;28;19971;-83
2024/01/23 08:08:39;;;;;;;;;;;;;;;;;;4991520;28;20018;-82
2024/01/23 08:11:05;;;;;;;;;;;;;;;;;;4994702;28;19913;-83
2024/01/23 08:13:30;;;;;;;;;;;;;;;;;;4992393;28;19910;-84
2024/01/23 08:15:55;;;;;;;;;;;;;;;;;;4995200;28;19948;-83
2024/01/23 08:18:20;;;;;;;;;;;;;;;;;;4998764;28;19957;-82
2024/01/23 08:20:46;;;;;;;;;;;;;;;;;;4989116;28;19914;-83
2024/01/23 08:23:11;;;;;;;;;;;;;;;;;;4983987;28;19941;-83
2024/01/23 08:25:37;;;;;;;;;;;;;;;;;;4990300;28;20021;-83
2024/01/23 08:28:02;;;;;;;;;;;;;;;;;;4991554;28;19914;-84
2024/01/23 08:30:27;;;;;;;;;;;;;;;;;;4991456;28;19913;-83
2024/01/23 08:32:53;;;;;;;;;;;;;;;;;;4989853;28;19913;-84
2024/01/23 08:35:18;;;;;;;;;;;;;;;;;;4988835;28;19945;-83
2024/01/23 08:37:43;;;;;;;;;;;;;;;;;;4990560;28;20500;-83
2024/01/23 08:40:09;;;;;;;;;;;;;;;;;;4989662;28;20383;-85
2024/01/23 08:42:34;;;;;;;;;;;;;;;;;;4990485;28;19917;-84
2024/01/23 08:44:59;;;;;;;;;;;;;;;;;;4992056;28;19913;-83
2024/01/23 08:47:24;;;;;;;;;;;;;;;;;;4989530;28;20308;-84
2024/01/23 08:49:50;;;;;;;;;;;;;;;;;;4992281;28;19913;-84
2024/01/23 08:52:15;;;;;;;;;;;;;;;;;;4991677;28;19909;-83
2024/01/23 08:54:40;;;;;;;;;;;;;;;;;;4992446;28;20024;-84
2024/01/23 08:57:06;;;;;;;;;;;;;;;;;;4989837;28;19910;-84
2024/01/23 08:59:31;;;;;;;;;;;;;;;;;;4991962;28;20400;-84
2024/01/23 09:01:56;;;;;;;;;;;;;;;;;;4991111;28;20041;-83
2024/01/23 09:04:22;;;;;;;;;;;;;;;;;;4989596;28;20049;-83
2024/01/23 09:06:47;;;;;;;;;;;;;;;;;;4990898;28;19976;-82
2024/01/23 09:09:13;;;;;;;;;;;;;;;;;;4990053;28;19918;-82
2024/01/23 09:11:39;;;;;;;;;;;;;;;;;;4990383;28;19932;-83
2024/01/23 09:14:04;;;;;;;;;;;;;;;;;;4991373;28;19917;-83
2024/01/23 09:16:29;;;;;;;;;;;;;;;;;;4990724;28;20433;-83
2024/01/23 09:18:55;;;;;;;;;;;;;;;;;;4992355;28;20008;-83
2024/01/23 09:21:22;;;;;;;;;;;;;;;;;;4987496;28;19910;-84
2024/01/23 09:23:47;;;;;;;;;;;;;;;;;;4988168;28;20421;-82
2024/01/23 09:26:12;;;;;;;;;;;;;;;;;;4991432;28;20028;-83
2024/01/23 09:28:38;;;;;;;;;;;;;;;;;;4994180;28;19913;-82
2024/01/23 09:31:04;;;;;;;;;;;;;;;;;;4989638;28;19910;-85
2024/01/23 09:33:29;;;;;;;;;;;;;;;;;;4989183;28;19921;-83
2024/01/23 09:35:54;;;;;;;;;;;;;;;;;;4974713;28;19910;-84
2024/01/23 09:38:21;;;;;;;;;;;;;;;;;;4990176;28;20390;-84
2024/01/23 09:40:46;;;;;;;;;;;;;;;;;;4990006;28;19909;-84
2024/01/23 09:43:12;;;;;;;;;;;;;;;;;;4990525;28;19913;-83
2024/01/23 09:45:37;;;;;;;;;;;;;;;;;;4996969;28;19914;-83
2024/01/23 09:48:02;;;;;;;;;;;;;;;;;;4992693;28;19924;-84
2024/01/23 09:50:28;;;;;;;;;;;;;;;;;;4991875;28;19960;-83
2024/01/23 09:52:55;;;;;;;;;;;;;;;;;;5009593;28;20008;-83
2024/01/23 09:55:20;;;;;;;;;;;;;;;;;;4993866;28;19913;-84
2024/01/23 09:57:46;;;;;;;;;;;;;;;;;;4992970;28;20411;-83
2024/01/23 10:00:11;;;;;;;;;;;;;;;;;;4993616;28;20332;-83
2024/01/23 10:02:39;;;;;;;;;;;;;;;;;;4994587;28;19960;-83
2024/01/23 10:05:05;;;;;;;;;;;;;;;;;;4994995;28;19910;-83
2024/01/23 10:07:30;;;;;;;;;;;;;;;;;;4994451;28;19914;-84
2024/01/23 10:09:58;;;;;;;;;;;;;;;;;;4992697;28;20463;-84
2024/01/23 10:12:23;;;;;;;;;;;;;;;;;;4996875;28;19917;-84
2024/01/23 10:14:48;;;;;;;;;;;;;;;;;;4978813;28;19914;-83
2024/01/23 10:17:14;;;;;;;;;;;;;;;;;;5007511;28;19917;-84
2024/01/23 10:19:39;;;;;;;;;;;;;;;;;;4975890;28;19999;-83
2024/01/23 10:22:04;;;;;;;;;;;;;;;;;;4994046;28;19948;-84
2024/01/23 10:24:30;;;;;;;;;;;;;;;;;;4994361;28;19979;-85
2024/01/23 10:26:55;;;;;;;;;;;;;;;;;;4994321;28;19956;-84
2024/01/23 10:29:20;;;;;;;;;;;;;;;;;;4992466;28;19917;-84
2024/01/23 10:31:45;;;;;;;;;;;;;;;;;;4993362;28;19940;-84
2024/01/23 10:34:12;;;;;;;;;;;;;;;;;;4993899;28;20067;-85
2024/01/23 10:36:37;;;;;;;;;;;;;;;;;;4994304;28;19913;-83
2024/01/23 10:39:02;;;;;;;;;;;;;;;;;;5003568;28;19930;-84
2024/01/23 10:41:28;;;;;;;;;;;;;;;;;;4994202;28;19919;-84
2024/01/23 10:43:53;;;;;;;;;;;;;;;;;;4974972;28;20048;-84
2024/01/23 10:46:19;;;;;;;;;;;;;;;;;;4993034;28;19940;-82
2024/01/23 10:48:44;;;;;;;;;;;;;;;;;;4993607;28;19917;-84
2024/01/23 10:51:09;;;;;;;;;;;;;;;;;;4993407;28;19914;-84
2024/01/23 10:53:35;;;;;;;;;;;;;;;;;;4993685;28;19972;-83
2024/01/23 10:56:00;;;;;;;;;;;;;;;;;;4992450;28;19925;-83
2024/01/23 10:58:25;;;;;;;;;;;;;;;;;;4991641;28;19917;-82
2024/01/23 11:00:51;;;;;;;;;;;;;;;;;;4994407;28;19914;-83
2024/01/23 11:03:16;;;;;;;;;;;;;;;;;;4993236;28;20357;-84
2024/01/23 11:05:41;;;;;;;;;;;;;;;;;;4992539;28;20439;-84
2024/01/23 11:08:09;;;;;;;;;;;;;;;;;;4993829;28;19909;-84
2024/01/23 11:10:34;;;;;;;;;;;;;;;;;;4995753;28;19913;-83
2024/01/23 11:12:59;;;;;;;;;;;;;;;;;;4993478;28;19916;-84
2024/01/23 11:15:25;;;;;;;;;;;;;;;;;;4992194;28;19917;-84
2024/01/23 11:17:50;;;;;;;;;;;;;;;;;;4993508;28;20292;-83
2024/01/23 11:20:15;;;;;;;;;;;;;;;;;;4995744;28;19917;-83
2024/01/23 11:22:41;;;;;;;;;;;;;;;;;;4991583;28;19960;-84
2024/01/23 11:25:06;;;;;;;;;;;;;;;;;;4979370;28;19914;-84
2024/01/23 11:27:31;;;;;;;;;;;;;;;;;;4996308;28;19951;-85
2024/01/23 11:29:57;;;;;;;;;;;;;;;;;;5006964;28;19893;-83
2024/01/23 11:32:23;;;;;;;;;;;;;;;;;;4997097;28;20523;-83
2024/01/23 11:34:49;;;;;;;;;;;;;;;;;;4995212;28;19967;-84
2024/01/23 11:37:14;;;;;;;;;;;;;;;;;;4995959;28;20008;-84
2024/01/23 11:39:41;;;;;;;;;;;;;;;;;;4998615;28;19917;-83
2024/01/23 11:42:07;;;;;;;;;;;;;;;;;;4994832;28;20280;-83
2024/01/23 11:44:33;;;;;;;;;;;;;;;;;;4998886;28;19917;-84
2024/01/23 11:46:58;;;;;;;;;;;;;;;;;;4992079;28;19909;-83
2024/01/23 11:49:44;;;;;;;;;;;;;;;;;;4993026;28;19936;-84
2024/01/23 11:52:09;;;;;;;;;;;;;;;;;;4991034;28;20004;-84
2024/01/23 11:54:34;;;;;;;;;;;;;;;;;;4992719;28;20008;-85
2024/01/23 11:57:00;;;;;;;;;;;;;;;;;;4990872;28;19913;-83
2024/01/23 11:59:25;;;;;;;;;;;;;;;;;;4990589;28;19916;-83
2024/01/23 12:01:51;;;;;;;;;;;;;;;;;;4992104;28;19914;-85
2024/01/23 12:04:16;;;;;;;;;;;;;;;;;;4992553;28;20363;-82
2024/01/23 12:06:41;;;;;;;;;;;;;;;;;;4990693;28;19914;-84
2024/01/23 12:09:07;;;;;;;;;;;;;;;;;;4993256;28;20602;-84
2024/01/23 12:11:33;;;;;;;;;;;;;;;;;;4991024;28;19917;-84
2024/01/23 12:13:59;;;;;;;;;;;;;;;;;;4990511;28;19913;-84
2024/01/23 12:16:24;;;;;;;;;;;;;;;;;;4990661;28;19936;-84
2024/01/23 12:18:49;;;;;;;;;;;;;;;;;;4993286;28;19916;-84
2024/01/23 12:21:15;;;;;;;;;;;;;;;;;;4992660;28;19921;-84
2024/01/23 12:23:40;;;;;;;;;;;;;;;;;;4990492;28;19968;-84
2024/01/23 12:26:05;;;;;;;;;;;;;;;;;;4990626;28;20448;-84
2024/01/23 12:28:31;;;;;;;;;;;;;;;;;;4990723;28;19937;-84
2024/01/23 12:30:56;;;;;;;;;;;;;;;;;;4989459;28;19914;-83
2024/01/23 12:33:22;;;;;;;;;;;;;;;;;;4998636;28;19913;-84
2024/01/23 12:35:47;;;;;;;;;;;;;;;;;;5004553;28;19921;-84
2024/01/23 12:38:12;;;;;;;;;;;;;;;;;;4994655;28;19929;-84
2024/01/23 12:40:38;;;;;;;;;;;;;;;;;;4993985;28;19913;-83
2024/01/23 12:43:04;;;;;;;;;;;;;;;;;;4994674;28;19917;-84
2024/01/23 12:45:29;;;;;;;;;;;;;;;;;;4989030;28;20374;-84
2024/01/23 12:47:54;;;;;;;;;;;;;;;;;;4976300;28;19916;-83
2024/01/23 12:50:20;;;;;;;;;;;;;;;;;;4993951;28;20404;-84
2024/01/23 12:52:46;;;;;;;;;;;;;;;;;;4997207;28;20376;-84
2024/01/23 12:55:11;;;;;;;;;;;;;;;;;;4993309;28;19917;-83
2024/01/23 12:57:36;;;;;;;;;;;;;;;;;;4995910;28;19909;-83
2024/01/23 13:00:04;;;;;;;;;;;;;;;;;;4992937;28;19914;-84
2024/01/23 13:02:29;;;;;;;;;;;;;;;;;;4995083;28;19909;-85
2024/01/23 13:04:54;;;;;;;;;;;;;;;;;;4991872;28;19920;-86
2024/01/23 13:07:20;;;;;;;;;;;;;;;;;;4996061;28;19913;-85
2024/01/23 13:09:45;;;;;;;;;;;;;;;;;;4992005;28;19940;-85
2024/01/23 13:12:10;;;;;;;;;;;;;;;;;;4995930;28;19969;-84
2024/01/23 13:14:36;;;;;;;;;;;;;;;;;;4993272;28;19921;-84
2024/01/23 13:17:01;;;;;;;;;;;;;;;;;;5000392;28;20332;-84
2024/01/23 13:19:27;;;;;;;;;;;;;;;;;;4997412;28;19914;-84
2024/01/23 13:21:52;;;;;;;;;;;;;;;;;;4995880;28;19914;-84
2024/01/23 13:24:18;;;;;;;;;;;;;;;;;;4990798;28;20328;-85
2024/01/23 13:26:43;;;;;;;;;;;;;;;;;;4998862;28;19920;-85
2024/01/23 13:29:09;;;;;;;;;;;;;;;;;;4995901;28;19913;-83
2024/01/23 13:31:35;;;;;;;;;;;;;;;;;;4996723;28;19910;-86
2024/01/23 13:34:00;;;;;;;;;;;;;;;;;;5012314;28;20280;-85
2024/01/23 13:36:25;;;;;;;;;;;;;;;;;;4999237;28;20261;-85
2024/01/23 13:38:51;;;;;;;;;;;;;;;;;;4994810;28;19953;-85
2024/01/23 13:41:16;;;;;;;;;;;;;;;;;;4991007;28;19914;-84
2024/01/23 13:43:42;;;;;;;;;;;;;;;;;;4976864;28;19959;-85
2024/01/23 13:46:07;;;;;;;;;;;;;;;;;;4993916;28;20357;-84
2024/01/23 13:48:33;;;;;;;;;;;;;;;;;;4993375;28;19984;-84
2024/01/23 13:50:58;;;;;;;;;;;;;;;;;;4985662;28;19914;-83
2024/01/23 13:53:24;;;;;;;;;;;;;;;;;;5002416;28;19976;-84
2024/01/23 13:55:49;;;;;;;;;;;;;;;;;;5006253;28;19920;-82
2024/01/23 13:58:14;;;;;;;;;;;;;;;;;;5001451;28;20403;-85
2024/01/23 14:00:39;;;;;;;;;;;;;;;;;;5005086;28;20019;-84
2024/01/23 14:03:06;;;;;;;;;;;;;;;;;;5001165;28;20297;-84
2024/01/23 14:05:31;;;;;;;;;;;;;;;;;;5004726;28;19909;-85
2024/01/23 14:07:56;;;;;;;;;;;;;;;;;;5004515;28;19963;-84
2024/01/23 14:10:22;;;;;;;;;;;;;;;;;;5007373;28;20363;-84
2024/01/23 14:12:47;;;;;;;;;;;;;;;;;;5002292;28;20008;-84
2024/01/23 14:15:13;;;;;;;;;;;;;;;;;;5005749;28;19917;-84
2024/01/23 14:17:38;;;;;;;;;;;;;;;;;;4999895;28;19913;-85
2024/01/23 14:20:04;;;;;;;;;;;;;;;;;;5019185;28;19913;-85
2024/01/23 14:22:30;;;;;;;;;;;;;;;;;;4993983;28;19913;-84
2024/01/23 14:24:55;;;;;;;;;;;;;;;;;;4992608;28;20376;-85
2024/01/23 14:27:20;;;;;;;;;;;;;;;;;;4992212;28;19921;-84
2024/01/23 14:29:46;;;;;;;;;;;;;;;;;;4975349;28;19933;-86
2024/01/23 14:32:12;;;;;;;;;;;;;;;;;;4993716;28;20401;-85
2024/01/23 14:34:37;;;;;;;;;;;;;;;;;;4993031;28;19992;-84
2024/01/23 14:37:04;;;;;;;;;;;;;;;;;;4990855;28;20411;-85
2024/01/23 14:39:29;;;;;;;;;;;;;;;;;;4992450;28;19921;-86
2024/01/23 14:42:00;;;;;;;;;;;;;;;;;;4993644;28;19935;-84
2024/01/23 14:44:26;;;;;;;;;;;;;;;;;;4992384;28;19976;-84
2024/01/23 14:46:51;;;;;;;;;;;;;;;;;;4996507;28;19910;-84
2024/01/23 14:49:17;;;;;;;;;;;;;;;;;;4994876;28;19952;-84
2024/01/23 14:51:42;;;;;;;;;;;;;;;;;;4994770;28;19913;-84
2024/01/23 14:54:08;;;;;;;;;;;;;;;;;;5002345;28;19917;-84
2024/01/23 14:56:33;;;;;;;;;;;;;;;;;;4991130;28;19916;-83
2024/01/23 14:58:59;;;;;;;;;;;;;;;;;;4991357;28;20385;-84
2024/01/23 15:01:24;;;;;;;;;;;;;;;;;;4991518;28;20349;-85
2024/01/23 15:03:51;;;;;;;;;;;;;;;;;;4994629;28;19913;-85
2024/01/23 15:06:16;;;;;;;;;;;;;;;;;;4998507;28;20431;-84
2024/01/23 15:08:42;;;;;;;;;;;;;;;;;;4997536;28;20081;-84
2024/01/23 15:11:07;;;;;;;;;;;;;;;;;;4996479;28;20376;-85
2024/01/23 15:13:32;;;;;;;;;;;;;;;;;;4998915;28;20265;-85
2024/01/23 15:15:58;;;;;;;;;;;;;;;;;;4997002;28;19921;-83
2024/01/23 15:18:23;;;;;;;;;;;;;;;;;;4995387;28;19928;-86
2024/01/23 15:20:48;;;;;;;;;;;;;;;;;;4993876;28;19910;-84
2024/01/23 15:23:14;;;;;;;;;;;;;;;;;;4986855;28;20304;-83
2024/01/23 15:25:39;;;;;;;;;;;;;;;;;;4990542;28;20053;-85
2024/01/23 15:28:04;;;;;;;;;;;;;;;;;;4989985;28;20280;-84
2024/01/23 15:30:31;;;;;;;;;;;;;;;;;;4991780;28;20381;-85
2024/01/23 15:32:57;;;;;;;;;;;;;;;;;;4990959;28;19914;-84
2024/01/23 15:35:22;;;;;;;;;;;;;;;;;;4990867;28;19924;-85
2024/01/23 15:37:48;;;;;;;;;;;;;;;;;;4996276;28;19988;-85
2024/01/23 15:40:13;;;;;;;;;;;;;;;;;;4992975;28;20455;-84
2024/01/23 15:42:38;;;;;;;;;;;;;;;;;;4993512;28;19918;-84
2024/01/23 15:45:04;;;;;;;;;;;;;;;;;;4999229;28;20450;-85
2024/01/23 15:47:31;;;;;;;;;;;;;;;;;;4995982;28;20365;-85
2024/01/23 15:49:56;;;;;;;;;;;;;;;;;;4999560;28;20296;-83
2024/01/23 15:52:22;;;;;;;;;;;;;;;;;;4998713;28;19961;-84
2024/01/23 15:54:47;;;;;;;;;;;;;;;;;;4999842;28;19921;-85
2024/01/23 15:57:12;;;;;;;;;;;;;;;;;;4997173;28;20019;-85
2024/01/23 15:59:38;;;;;;;;;;;;;;;;;;4997038;28;19917;-84
2024/01/23 16:02:04;;;;;;;;;;;;;;;;;;4996733;28;19918;-85
2024/01/23 16:04:29;;;;;;;;;;;;;;;;;;5006559;28;20047;-84
2024/01/23 16:06:55;;;;;;;;;;;;;;;;;;5004338;28;20008;-84
2024/01/23 16:09:20;;;;;;;;;;;;;;;;;;4990479;28;19957;-84
2024/01/23 16:11:46;;;;;;;;;;;;;;;;;;5006023;28;20113;-83
2024/01/23 16:14:12;;;;;;;;;;;;;;;;;;5009336;28;19914;-88
2024/01/23 16:16:38;;;;;;;;;;;;;;;;;;5005929;28;20004;-86
2024/01/23 16:19:03;;;;;;;;;;;;;;;;;;5010018;28;19909;-84
2024/01/23 16:21:28;;;;;;;;;;;;;;;;;;4994510;28;19945;-85
2024/01/23 16:23:54;;;;;;;;;;;;;;;;;;4993286;28;19910;-86
2024/01/23 16:26:19;;;;;;;;;;;;;;;;;;4995386;28;19926;-86
2024/01/23 16:28:45;;;;;;;;;;;;;;;;;;5007037;28;19916;-87
2024/01/23 16:31:10;;;;;;;;;;;;;;;;;;5012783;28;19914;-85
2024/01/23 16:33:35;;;;;;;;;;;;;;;;;;5008352;28;19914;-85